createdAt,value
2017-01-25T00:00:28.759Z,16.29
2017-01-25T00:01:37.747Z,16.2
2017-01-25T00:02:46.725Z,16.04
2017-01-25T00:03:55.699Z,16.03
2017-01-25T00:05:04.681Z,16.04
2017-01-25T00:06:13.677Z,15.97
2017-01-25T00:07:22.666Z,15.78
2017-01-25T00:08:31.654Z,15.86
2017-01-25T00:09:40.628Z,15.89
2017-01-25T00:10:49.610Z,15.91
2017-01-25T00:11:58.653Z,15.89
2017-01-25T00:13:07.631Z,15.91
2017-01-25T00:14:16.617Z,15.88
2017-01-25T00:15:25.598Z,15.82
2017-01-25T00:16:34.585Z,15.61
2017-01-25T00:17:43.566Z,15.56
2017-01-25T00:18:52.544Z,15.59
2017-01-25T00:20:01.533Z,15.52
2017-01-25T00:21:10.509Z,15.6
2017-01-25T00:22:19.500Z,15.51
2017-01-25T00:23:28.480Z,15.51
2017-01-25T00:24:37.456Z,15.78
2017-01-25T00:25:46.446Z,15.64
2017-01-25T00:26:55.432Z,15.6
2017-01-25T00:28:04.406Z,15.49
2017-01-25T00:29:13.386Z,15.37
2017-01-25T00:30:22.356Z,15.33
2017-01-25T00:31:31.337Z,15.27
2017-01-25T00:32:40.319Z,15.33
2017-01-25T00:33:49.311Z,15.52
2017-01-25T00:34:58.285Z,15.52
2017-01-25T00:36:07.279Z,15.26
2017-01-25T00:37:16.259Z,15.28
2017-01-25T00:38:25.244Z,15.31
2017-01-25T00:39:34.246Z,15.08
2017-01-25T00:40:43.229Z,15.12
2017-01-25T00:41:52.202Z,15.15
2017-01-25T00:43:01.191Z,15.16
2017-01-25T00:44:10.175Z,15.26
2017-01-25T00:45:19.168Z,15.34
2017-01-25T00:46:28.152Z,15.26
2017-01-25T00:47:37.557Z,15.09
2017-01-25T00:48:46.528Z,14.96
2017-01-25T00:49:55.519Z,14.91
2017-01-25T00:51:04.510Z,15.04
2017-01-25T00:52:13.499Z,14.84
2017-01-25T00:53:22.483Z,15.05
2017-01-25T00:54:31.473Z,15.06
2017-01-25T00:55:40.452Z,14.87
2017-01-25T00:56:49.431Z,14.93
2017-01-25T00:57:58.427Z,14.91
2017-01-25T00:59:07.405Z,14.91
2017-01-25T01:00:16.396Z,14.91
2017-01-25T01:01:25.382Z,15.01
2017-01-25T01:02:34.360Z,14.98
2017-01-25T01:03:43.353Z,14.96
2017-01-25T01:04:52.401Z,14.97
2017-01-25T01:06:01.394Z,14.9
2017-01-25T01:07:10.378Z,14.93
2017-01-25T01:08:19.361Z,14.93
2017-01-25T01:09:28.346Z,15
2017-01-25T01:10:37.349Z,14.8
2017-01-25T01:11:46.332Z,14.63
2017-01-25T01:12:55.316Z,14.71
2017-01-25T01:14:04.299Z,14.75
2017-01-25T01:15:13.291Z,14.57
2017-01-25T01:16:54.317Z,14.68
2017-01-25T01:18:03.307Z,14.67
2017-01-25T01:19:12.298Z,14.63
2017-01-25T01:20:21.279Z,14.6
2017-01-25T01:21:30.258Z,14.59
2017-01-25T01:22:39.232Z,14.62
2017-01-25T01:23:48.230Z,14.67
2017-01-25T01:24:57.222Z,14.56
2017-01-25T01:26:06.217Z,14.6
2017-01-25T01:27:15.209Z,14.5
2017-01-25T01:28:24.187Z,14.52
2017-01-25T01:29:33.177Z,14.56
2017-01-25T01:30:42.159Z,14.42
2017-01-25T01:31:51.146Z,14.5
2017-01-25T01:33:00.119Z,14.56
2017-01-25T01:34:09.100Z,14.59
2017-01-25T01:35:18.087Z,14.42
2017-01-25T01:36:27.075Z,14.47
2017-01-25T01:37:36.089Z,14.39
2017-01-25T01:38:45.071Z,14.49
2017-01-25T01:39:54.043Z,14.42
2017-01-25T01:41:03.033Z,14.46
2017-01-25T01:42:12.032Z,14.46
2017-01-25T01:43:21.012Z,14.3
2017-01-25T01:44:30.000Z,14.34
2017-01-25T01:45:38.986Z,14.34
2017-01-25T01:46:47.992Z,14.34
2017-01-25T01:47:56.986Z,14.28
2017-01-25T01:49:05.984Z,14.39
2017-01-25T01:50:14.968Z,14.37
2017-01-25T01:51:23.952Z,14.46
2017-01-25T01:52:32.961Z,14.37
2017-01-25T01:53:41.940Z,14.3
2017-01-25T01:54:50.919Z,14.23
2017-01-25T01:55:59.912Z,14.32
2017-01-25T01:57:08.881Z,14.19
2017-01-25T01:58:17.878Z,14.19
2017-01-25T01:59:26.863Z,14.1
2017-01-25T02:00:35.841Z,14.1
2017-01-25T02:01:44.812Z,14.06
2017-01-25T02:02:53.791Z,14.05
2017-01-25T02:04:02.784Z,14.12
2017-01-25T02:05:11.770Z,14.1
2017-01-25T02:06:20.768Z,14.19
2017-01-25T02:07:29.740Z,14.13
2017-01-25T02:08:38.729Z,14.1
2017-01-25T02:09:47.714Z,14.04
2017-01-25T02:10:56.691Z,14.09
2017-01-25T02:12:05.675Z,14.12
2017-01-25T02:13:14.662Z,14.06
2017-01-25T02:14:23.648Z,14.02
2017-01-25T02:15:32.629Z,13.95
2017-01-25T02:16:41.612Z,13.98
2017-01-25T02:17:50.589Z,13.97
2017-01-25T02:18:59.574Z,13.99
2017-01-25T02:20:08.552Z,13.98
2017-01-25T02:21:17.543Z,13.87
2017-01-25T02:22:26.524Z,13.87
2017-01-25T02:23:35.509Z,13.94
2017-01-25T02:24:44.502Z,13.94
2017-01-25T02:25:53.521Z,13.98
2017-01-25T02:27:02.505Z,13.89
2017-01-25T02:28:11.494Z,13.8
2017-01-25T02:29:20.482Z,13.83
2017-01-25T02:30:29.469Z,13.81
2017-01-25T02:31:38.466Z,13.76
2017-01-25T02:32:47.454Z,13.72
2017-01-25T02:33:56.440Z,13.99
2017-01-25T02:35:05.426Z,13.92
2017-01-25T02:36:14.399Z,13.73
2017-01-25T02:37:23.394Z,13.66
2017-01-25T02:38:32.387Z,13.62
2017-01-25T02:39:41.362Z,13.61
2017-01-25T02:40:50.347Z,13.77
2017-01-25T02:41:59.330Z,13.73
2017-01-25T02:43:08.310Z,13.68
2017-01-25T02:44:17.296Z,13.69
2017-01-25T02:45:26.292Z,13.65
2017-01-25T02:46:35.274Z,13.55
2017-01-25T02:47:44.262Z,13.56
2017-01-25T02:48:53.252Z,13.59
2017-01-25T02:50:02.241Z,13.55
2017-01-25T02:51:11.231Z,13.5
2017-01-25T02:52:20.599Z,13.59
2017-01-25T02:53:30.096Z,13.47
2017-01-25T02:54:39.098Z,13.47
2017-01-25T02:55:48.083Z,13.54
2017-01-25T02:56:57.059Z,13.64
2017-01-25T02:58:06.046Z,13.62
2017-01-25T02:59:15.032Z,13.58
2017-01-25T03:00:24.011Z,13.58
2017-01-25T03:01:32.999Z,13.64
2017-01-25T03:02:41.971Z,13.54
2017-01-25T03:03:50.953Z,13.66
2017-01-25T03:04:59.927Z,13.54
2017-01-25T03:06:08.932Z,13.5
2017-01-25T03:07:17.907Z,13.5
2017-01-25T03:08:26.952Z,13.55
2017-01-25T03:09:35.947Z,13.47
2017-01-25T03:10:44.937Z,13.5
2017-01-25T03:11:53.911Z,13.5
2017-01-25T03:13:02.880Z,13.47
2017-01-25T03:14:11.875Z,13.4
2017-01-25T03:15:20.888Z,13.43
2017-01-25T03:16:29.872Z,13.44
2017-01-25T03:17:38.860Z,13.39
2017-01-25T03:18:47.849Z,13.44
2017-01-25T03:19:56.927Z,13.36
2017-01-25T03:21:05.915Z,13.39
2017-01-25T03:22:14.912Z,13.47
2017-01-25T03:23:23.889Z,13.39
2017-01-25T03:24:32.860Z,13.41
2017-01-25T03:25:41.840Z,13.44
2017-01-25T03:26:50.830Z,13.47
2017-01-25T03:27:59.816Z,13.49
2017-01-25T03:29:08.796Z,13.41
2017-01-25T03:30:17.777Z,13.39
2017-01-25T03:31:26.754Z,13.4
2017-01-25T03:32:35.739Z,13.44
2017-01-25T03:33:44.757Z,13.44
2017-01-25T03:34:53.748Z,13.3
2017-01-25T03:36:02.736Z,13.27
2017-01-25T03:37:11.718Z,13.31
2017-01-25T03:38:20.704Z,13.36
2017-01-25T03:39:29.683Z,13.41
2017-01-25T03:40:38.722Z,13.32
2017-01-25T03:41:47.697Z,13.39
2017-01-25T03:42:56.686Z,13.3
2017-01-25T03:44:05.671Z,13.27
2017-01-25T03:45:14.644Z,13.24
2017-01-25T03:46:23.627Z,13.36
2017-01-25T03:47:32.675Z,13.31
2017-01-25T03:48:41.656Z,13.37
2017-01-25T03:49:50.639Z,13.3
2017-01-25T03:50:59.622Z,13.21
2017-01-25T03:52:08.617Z,13.3
2017-01-25T03:53:17.591Z,13.27
2017-01-25T03:54:26.583Z,13.25
2017-01-25T03:55:35.572Z,13.27
2017-01-25T03:56:44.572Z,13.27
2017-01-25T03:57:53.538Z,13.21
2017-01-25T03:59:02.518Z,13.21
2017-01-25T04:00:11.497Z,13.2
2017-01-25T04:01:20.482Z,13.21
2017-01-25T04:02:29.453Z,13.18
2017-01-25T04:03:38.453Z,13.25
2017-01-25T04:04:47.440Z,13.28
2017-01-25T04:05:56.419Z,13.25
2017-01-25T04:07:05.428Z,13.18
2017-01-25T04:08:14.417Z,13.15
2017-01-25T04:09:23.403Z,13.07
2017-01-25T04:10:32.383Z,13.1
2017-01-25T04:11:41.375Z,13.12
2017-01-25T04:12:50.346Z,13.05
2017-01-25T04:13:59.339Z,13.12
2017-01-25T04:15:08.310Z,13.09
2017-01-25T04:16:17.292Z,13.03
2017-01-25T04:17:26.262Z,12.99
2017-01-25T04:18:35.248Z,13.07
2017-01-25T04:19:44.245Z,13.1
2017-01-25T04:20:53.234Z,13.1
2017-01-25T04:22:02.239Z,13.02
2017-01-25T04:23:11.222Z,13.09
2017-01-25T04:24:20.204Z,13.17
2017-01-25T04:25:29.184Z,13.21
2017-01-25T04:26:38.215Z,13.12
2017-01-25T04:27:47.213Z,13.07
2017-01-25T04:28:56.204Z,13.07
2017-01-25T04:30:05.185Z,13.23
2017-01-25T04:31:14.219Z,13.17
2017-01-25T04:32:23.232Z,13.13
2017-01-25T04:33:32.215Z,13.06
2017-01-25T04:34:41.208Z,13.09
2017-01-25T04:35:50.196Z,13
2017-01-25T04:36:59.167Z,13.15
2017-01-25T04:38:08.149Z,13.1
2017-01-25T04:39:17.134Z,13.13
2017-01-25T04:40:26.117Z,13.17
2017-01-25T04:41:35.102Z,13.2
2017-01-25T04:42:44.087Z,13.23
2017-01-25T04:43:53.069Z,13.25
2017-01-25T04:45:02.050Z,13.21
2017-01-25T04:46:11.042Z,13.18
2017-01-25T04:47:20.029Z,13.12
2017-01-25T04:48:29.025Z,13.13
2017-01-25T04:49:38.035Z,13.07
2017-01-25T04:50:47.010Z,13.2
2017-01-25T04:51:56.001Z,13.27
2017-01-25T04:53:04.977Z,13.06
2017-01-25T04:54:13.962Z,13.18
2017-01-25T04:55:22.937Z,13.17
2017-01-25T04:56:31.927Z,13.13
2017-01-25T04:57:40.909Z,13.07
2017-01-25T04:58:49.899Z,13.12
2017-01-25T04:59:59.329Z,13.09
2017-01-25T05:01:08.302Z,13.03
2017-01-25T05:02:17.288Z,13.1
2017-01-25T05:03:26.279Z,13.23
2017-01-25T05:04:35.252Z,13.1
2017-01-25T05:05:44.239Z,13.07
2017-01-25T05:06:53.226Z,13.07
2017-01-25T05:08:02.199Z,13.2
2017-01-25T05:09:11.183Z,13.17
2017-01-25T05:10:20.163Z,13.2
2017-01-25T05:11:29.147Z,13.18
2017-01-25T05:12:38.121Z,13.13
2017-01-25T05:13:47.106Z,13.12
2017-01-25T05:14:56.088Z,13.07
2017-01-25T05:16:05.120Z,13.12
2017-01-25T05:17:14.120Z,13.06
2017-01-25T05:18:23.113Z,13.07
2017-01-25T05:19:32.097Z,12.91
2017-01-25T05:20:41.083Z,12.94
2017-01-25T05:21:50.070Z,13.07
2017-01-25T05:22:59.049Z,12.98
2017-01-25T05:24:08.041Z,12.94
2017-01-25T05:25:17.032Z,12.99
2017-01-25T05:26:26.005Z,13
2017-01-25T05:27:34.997Z,13.02
2017-01-25T05:28:43.985Z,13.06
2017-01-25T05:29:52.965Z,13.07
2017-01-25T05:31:01.953Z,13.1
2017-01-25T05:32:10.951Z,12.92
2017-01-25T05:33:19.964Z,13.03
2017-01-25T05:34:28.948Z,13.05
2017-01-25T05:35:38.355Z,13.06
2017-01-25T05:36:47.343Z,13.07
2017-01-25T05:37:56.352Z,13.09
2017-01-25T05:39:05.331Z,13.06
2017-01-25T05:40:14.309Z,12.92
2017-01-25T05:41:23.292Z,12.92
2017-01-25T05:42:32.277Z,12.99
2017-01-25T05:43:41.258Z,12.88
2017-01-25T05:44:50.250Z,12.91
2017-01-25T05:45:59.227Z,12.81
2017-01-25T05:47:08.207Z,12.91
2017-01-25T05:48:17.242Z,12.9
2017-01-25T05:49:26.237Z,12.8
2017-01-25T05:50:35.206Z,13.02
2017-01-25T05:51:44.203Z,13.06
2017-01-25T05:52:53.588Z,12.94
2017-01-25T05:54:02.657Z,13.05
2017-01-25T05:55:11.649Z,12.98
2017-01-25T05:56:20.635Z,12.99
2017-01-25T05:57:29.620Z,12.99
2017-01-25T05:58:38.604Z,12.98
2017-01-25T05:59:47.592Z,13.02
2017-01-25T06:00:56.573Z,13.09
2017-01-25T06:02:05.562Z,12.92
2017-01-25T06:03:14.542Z,13.43
2017-01-25T06:04:23.516Z,13.4
2017-01-25T06:05:32.483Z,13.37
2017-01-25T06:06:41.477Z,13.21
2017-01-25T06:07:50.453Z,13.27
2017-01-25T06:08:59.582Z,13.59
2017-01-25T06:10:08.559Z,13.87
2017-01-25T06:11:17.548Z,14.05
2017-01-25T06:12:26.522Z,14.26
2017-01-25T06:13:35.509Z,14.32
2017-01-25T06:14:44.494Z,14.44
2017-01-25T06:15:53.482Z,14.49
2017-01-25T06:17:02.453Z,14.54
2017-01-25T06:18:11.419Z,14.57
2017-01-25T06:19:20.406Z,14.7
2017-01-25T06:20:29.391Z,14.65
2017-01-25T06:21:38.368Z,14.74
2017-01-25T06:22:47.358Z,14.78
2017-01-25T06:23:56.528Z,14.82
2017-01-25T06:25:05.512Z,14.9
2017-01-25T06:26:14.486Z,14.97
2017-01-25T06:27:23.482Z,14.87
2017-01-25T06:28:32.470Z,15.04
2017-01-25T06:29:41.449Z,15.09
2017-01-25T06:30:50.430Z,15.18
2017-01-25T06:31:59.408Z,15.12
2017-01-25T06:33:08.388Z,15.09
2017-01-25T06:34:17.371Z,15.15
2017-01-25T06:35:26.356Z,15.16
2017-01-25T06:36:35.340Z,15.26
2017-01-25T06:37:44.742Z,15.23
2017-01-25T06:38:53.731Z,15.36
2017-01-25T06:40:02.709Z,15.37
2017-01-25T06:41:11.708Z,15.44
2017-01-25T06:42:20.708Z,15.37
2017-01-25T06:43:29.697Z,15.41
2017-01-25T06:44:38.684Z,15.51
2017-01-25T06:45:47.689Z,15.46
2017-01-25T06:46:56.671Z,15.38
2017-01-25T06:48:05.653Z,15.53
2017-01-25T06:49:14.645Z,15.53
2017-01-25T06:50:23.629Z,15.56
2017-01-25T06:51:32.608Z,15.63
2017-01-25T06:52:41.592Z,15.61
2017-01-25T06:53:50.563Z,15.63
2017-01-25T06:54:59.557Z,15.74
2017-01-25T06:56:08.565Z,15.67
2017-01-25T06:57:17.552Z,15.7
2017-01-25T06:58:26.527Z,15.73
2017-01-25T06:59:35.505Z,15.76
2017-01-25T07:00:44.486Z,15.82
2017-01-25T07:01:53.471Z,15.78
2017-01-25T07:03:02.446Z,15.78
2017-01-25T07:04:11.434Z,15.86
2017-01-25T07:05:20.417Z,15.82
2017-01-25T07:06:29.405Z,15.91
2017-01-25T07:07:38.388Z,15.84
2017-01-25T07:08:47.360Z,15.82
2017-01-25T07:09:56.328Z,15.91
2017-01-25T07:11:05.326Z,15.96
2017-01-25T07:12:14.371Z,16.04
2017-01-25T07:13:26.388Z,16.14
2017-01-25T07:14:35.366Z,16.11
2017-01-25T07:15:44.341Z,16.09
2017-01-25T07:16:53.327Z,16.14
2017-01-25T07:18:02.316Z,16.17
2017-01-25T07:19:11.312Z,16.18
2017-01-25T07:20:20.282Z,16.27
2017-01-25T07:21:29.378Z,16.17
2017-01-25T07:22:38.442Z,16.27
2017-01-25T07:23:47.538Z,16.34
2017-01-25T07:24:56.633Z,16.42
2017-01-25T07:26:05.645Z,16.44
2017-01-25T07:27:14.921Z,16.42
2017-01-25T07:28:24.038Z,16.42
2017-01-25T07:29:33.018Z,16.58
2017-01-25T07:30:42.046Z,16.42
2017-01-25T07:31:51.031Z,16.66
2017-01-25T07:33:00.014Z,16.82
2017-01-25T07:34:08.991Z,17.08
2017-01-25T07:35:17.986Z,17.26
2017-01-25T07:36:26.973Z,17.32
2017-01-25T07:37:35.948Z,17.55
2017-01-25T07:38:44.994Z,17.66
2017-01-25T07:39:54.043Z,17.71
2017-01-25T07:41:03.032Z,17.79
2017-01-25T07:42:12.017Z,17.86
2017-01-25T07:43:21.009Z,17.89
2017-01-25T07:44:30.012Z,17.96
2017-01-25T07:45:38.999Z,17.96
2017-01-25T07:46:47.992Z,18.06
2017-01-25T07:47:56.964Z,17.96
2017-01-25T07:49:05.939Z,18.22
2017-01-25T07:50:14.931Z,18.22
2017-01-25T07:51:23.909Z,18.32
2017-01-25T07:52:32.896Z,18.35
2017-01-25T07:53:42.687Z,18.42
2017-01-25T07:54:51.680Z,18.46
2017-01-25T07:56:00.647Z,18.51
2017-01-25T07:57:09.633Z,18.54
2017-01-25T07:58:18.660Z,18.64
2017-01-25T07:59:27.659Z,18.76
2017-01-25T08:00:36.655Z,18.76
2017-01-25T08:01:45.635Z,18.95
2017-01-25T08:02:54.621Z,18.94
2017-01-25T08:04:03.622Z,19.1
2017-01-25T08:05:12.602Z,19.14
2017-01-25T08:06:21.583Z,19.14
2017-01-25T08:07:30.564Z,19.27
2017-01-25T08:08:39.542Z,19.24
2017-01-25T08:09:48.522Z,19.28
2017-01-25T08:10:57.500Z,19.45
2017-01-25T08:12:06.515Z,19.61
2017-01-25T08:13:15.506Z,19.8
2017-01-25T08:14:24.500Z,19.88
2017-01-25T08:15:33.479Z,19.8
2017-01-25T08:16:42.471Z,19.9
2017-01-25T08:17:51.467Z,20
2017-01-25T08:19:00.455Z,20.01
2017-01-25T08:20:09.437Z,20
2017-01-25T08:21:18.433Z,20.09
2017-01-25T08:22:27.424Z,20.15
2017-01-25T08:23:36.401Z,20.01
2017-01-25T08:24:45.391Z,20.06
2017-01-25T08:25:54.420Z,20.07
2017-01-25T08:27:03.401Z,20.04
2017-01-25T08:28:12.391Z,20.13
2017-01-25T08:29:21.412Z,20.19
2017-01-25T08:30:30.402Z,20.22
2017-01-25T08:31:39.391Z,20.2
2017-01-25T08:32:48.388Z,20.41
2017-01-25T08:33:57.376Z,20.38
2017-01-25T08:35:06.371Z,20.46
2017-01-25T08:36:15.358Z,20.68
2017-01-25T08:37:24.333Z,20.69
2017-01-25T08:38:33.354Z,20.5
2017-01-25T08:39:42.340Z,20.47
2017-01-25T08:40:51.316Z,20.69
2017-01-25T08:42:00.316Z,20.58
2017-01-25T08:43:09.311Z,20.58
2017-01-25T08:44:18.299Z,20.72
2017-01-25T08:45:27.283Z,20.87
2017-01-25T08:46:36.268Z,20.93
2017-01-25T08:47:45.256Z,20.84
2017-01-25T08:48:54.238Z,20.87
2017-01-25T08:50:03.228Z,20.71
2017-01-25T08:51:12.221Z,20.71
2017-01-25T08:52:21.214Z,20.84
2017-01-25T08:53:30.203Z,20.84
2017-01-25T08:54:39.195Z,20.91
2017-01-25T08:55:48.181Z,20.9
2017-01-25T08:56:57.169Z,20.93
2017-01-25T08:58:06.151Z,21.18
2017-01-25T08:59:15.129Z,21.3
2017-01-25T09:00:24.132Z,21.43
2017-01-25T09:01:33.127Z,21.49
2017-01-25T09:02:42.122Z,21.48
2017-01-25T09:03:51.106Z,21.64
2017-01-25T09:05:00.101Z,21.71
2017-01-25T09:06:09.091Z,21.79
2017-01-25T09:07:18.071Z,21.86
2017-01-25T09:08:27.052Z,21.86
2017-01-25T09:09:36.053Z,21.64
2017-01-25T09:10:45.048Z,21.5
2017-01-25T09:11:54.057Z,21.31
2017-01-25T09:13:03.036Z,21.21
2017-01-25T09:14:13.060Z,21.1
2017-01-25T09:15:22.062Z,21.2
2017-01-25T09:16:31.064Z,21.13
2017-01-25T09:17:40.052Z,21.06
2017-01-25T09:18:49.054Z,20.97
2017-01-25T09:19:58.030Z,21.03
2017-01-25T09:21:07.302Z,21.02
2017-01-25T09:22:16.309Z,21.03
2017-01-25T09:23:25.302Z,20.99
2017-01-25T09:24:34.284Z,21.03
2017-01-25T09:25:43.263Z,20.91
2017-01-25T09:26:52.244Z,20.95
2017-01-25T09:28:01.227Z,21.13
2017-01-25T09:29:11.196Z,21.24
2017-01-25T09:30:21.700Z,21.31
2017-01-25T09:31:30.682Z,21.3
2017-01-25T09:32:39.667Z,21.42
2017-01-25T09:33:48.662Z,21.38
2017-01-25T09:34:57.646Z,21.4
2017-01-25T09:36:06.647Z,21.36
2017-01-25T09:37:15.626Z,21.46
2017-01-25T09:38:24.614Z,21.49
2017-01-25T09:39:33.588Z,21.48
2017-01-25T09:40:42.590Z,21.48
2017-01-25T09:41:51.574Z,21.33
2017-01-25T09:43:00.574Z,21.33
2017-01-25T09:44:09.573Z,21.33
2017-01-25T09:45:18.560Z,21.31
2017-01-25T09:46:27.548Z,21.34
2017-01-25T09:47:36.543Z,21.31
2017-01-25T09:48:45.547Z,21.24
2017-01-25T09:49:54.556Z,21.25
2017-01-25T09:51:03.556Z,21.23
2017-01-25T09:52:12.545Z,21.27
2017-01-25T09:53:21.529Z,21.25
2017-01-25T09:54:30.516Z,21.25
2017-01-25T09:55:39.500Z,21.33
2017-01-25T09:56:48.493Z,21.33
2017-01-25T09:57:57.477Z,21.36
2017-01-25T09:59:06.449Z,21.33
2017-01-25T10:00:15.437Z,21.38
2017-01-25T10:01:24.442Z,21.39
2017-01-25T10:02:33.420Z,21.36
2017-01-25T10:03:42.413Z,21.36
2017-01-25T10:04:51.400Z,21.31
2017-01-25T10:06:00.415Z,21.2
2017-01-25T10:07:09.409Z,21.3
2017-01-25T10:08:18.405Z,21.45
2017-01-25T10:09:27.398Z,21.61
2017-01-25T10:10:36.382Z,21.63
2017-01-25T10:11:45.385Z,21.82
2017-01-25T10:12:54.369Z,21.98
2017-01-25T10:14:03.362Z,22.02
2017-01-25T10:15:12.348Z,22.06
2017-01-25T10:16:22.178Z,22.13
2017-01-25T10:17:31.165Z,22.13
2017-01-25T10:18:41.104Z,22.19
2017-01-25T10:19:50.149Z,22.32
2017-01-25T10:20:59.129Z,22.42
2017-01-25T10:22:08.123Z,22.49
2017-01-25T10:23:17.115Z,22.57
2017-01-25T10:24:26.109Z,22.69
2017-01-25T10:25:35.096Z,22.9
2017-01-25T10:26:44.084Z,22.94
2017-01-25T10:27:53.066Z,22.87
2017-01-25T10:29:02.058Z,22.88
2017-01-25T10:30:11.058Z,23.09
2017-01-25T10:31:20.049Z,23.12
2017-01-25T10:32:29.030Z,23.03
2017-01-25T10:33:38.022Z,22.94
2017-01-25T10:34:47.007Z,22.71
2017-01-25T10:35:56.010Z,22.83
2017-01-25T10:37:05.277Z,22.87
2017-01-25T10:38:14.357Z,22.83
2017-01-25T10:39:23.343Z,22.9
2017-01-25T10:40:32.325Z,22.76
2017-01-25T10:41:41.304Z,22.79
2017-01-25T10:42:50.293Z,22.94
2017-01-25T10:43:59.290Z,23.18
2017-01-25T10:45:08.266Z,23.25
2017-01-25T10:46:17.250Z,23.05
2017-01-25T10:47:26.664Z,23.01
2017-01-25T10:48:35.655Z,22.73
2017-01-25T10:49:44.648Z,22.69
2017-01-25T10:50:53.630Z,22.61
2017-01-25T10:52:02.616Z,22.46
2017-01-25T10:53:11.605Z,22.38
2017-01-25T10:54:20.602Z,22.35
2017-01-25T10:55:29.581Z,22.34
2017-01-25T10:56:38.580Z,22.27
2017-01-25T10:57:47.577Z,22.29
2017-01-25T10:58:56.573Z,22.35
2017-01-25T11:00:05.590Z,22.29
2017-01-25T11:01:14.577Z,22.23
2017-01-25T11:02:23.572Z,22.24
2017-01-25T11:03:32.566Z,22.2
2017-01-25T11:04:41.556Z,22.26
2017-01-25T11:05:50.554Z,22.29
2017-01-25T11:06:59.546Z,22.32
2017-01-25T11:08:08.591Z,22.27
2017-01-25T11:09:17.990Z,22.35
2017-01-25T11:10:26.992Z,22.27
2017-01-25T11:11:35.981Z,22.36
2017-01-25T11:12:44.985Z,22.35
2017-01-25T11:13:53.980Z,22.36
2017-01-25T11:15:02.966Z,22.35
2017-01-25T11:16:11.947Z,22.29
2017-01-25T11:17:20.921Z,22.36
2017-01-25T11:18:29.901Z,22.32
2017-01-25T11:19:38.903Z,22.36
2017-01-25T11:20:47.887Z,22.35
2017-01-25T11:21:56.883Z,22.23
2017-01-25T11:23:05.907Z,22.21
2017-01-25T11:24:14.907Z,22.23
2017-01-25T11:25:23.882Z,22.17
2017-01-25T11:26:32.876Z,22.24
2017-01-25T11:27:41.871Z,22.13
2017-01-25T11:28:50.858Z,22.16
2017-01-25T11:29:59.833Z,22.16
2017-01-25T11:31:08.846Z,22.16
2017-01-25T11:32:17.837Z,22.21
2017-01-25T11:33:26.827Z,22.11
2017-01-25T11:34:35.835Z,22.17
2017-01-25T11:35:44.832Z,22.11
2017-01-25T11:36:53.820Z,22.11
2017-01-25T11:38:02.814Z,21.99
2017-01-25T11:39:11.819Z,22.06
2017-01-25T11:40:20.814Z,22.02
2017-01-25T11:41:29.811Z,22.01
2017-01-25T11:42:38.791Z,21.98
2017-01-25T11:43:47.781Z,22.01
2017-01-25T11:44:56.771Z,22.02
2017-01-25T11:46:05.754Z,21.99
2017-01-25T11:47:14.754Z,21.96
2017-01-25T11:48:23.783Z,21.92
2017-01-25T11:49:32.766Z,21.92
2017-01-25T11:50:41.745Z,21.92
2017-01-25T11:51:50.753Z,21.92
2017-01-25T11:52:59.732Z,21.94
2017-01-25T11:54:08.724Z,21.89
2017-01-25T11:55:17.702Z,21.98
2017-01-25T11:56:26.691Z,21.89
2017-01-25T11:57:35.678Z,21.94
2017-01-25T11:58:44.675Z,21.9
2017-01-25T11:59:53.671Z,21.82
2017-01-25T12:01:02.652Z,21.89
2017-01-25T12:02:11.634Z,21.86
2017-01-25T12:03:20.649Z,21.9
2017-01-25T12:04:29.625Z,21.92
2017-01-25T12:05:38.623Z,21.89
2017-01-25T12:06:47.621Z,21.89
2017-01-25T12:07:56.604Z,21.89
2017-01-25T12:09:05.620Z,21.85
2017-01-25T12:10:14.605Z,21.75
2017-01-25T12:11:23.599Z,21.7
2017-01-25T12:12:32.597Z,21.71
2017-01-25T12:13:41.592Z,21.75
2017-01-25T12:14:50.580Z,21.71
2017-01-25T12:15:59.578Z,21.79
2017-01-25T12:17:08.563Z,21.79
2017-01-25T12:18:17.547Z,21.76
2017-01-25T12:19:26.557Z,21.76
2017-01-25T12:20:35.536Z,21.8
2017-01-25T12:21:44.531Z,21.73
2017-01-25T12:22:53.516Z,21.8
2017-01-25T12:24:02.513Z,21.7
2017-01-25T12:25:11.496Z,21.78
2017-01-25T12:26:20.485Z,21.76
2017-01-25T12:27:29.490Z,21.7
2017-01-25T12:28:38.472Z,21.79
2017-01-25T12:29:47.459Z,21.67
2017-01-25T12:30:56.446Z,21.76
2017-01-25T12:32:05.419Z,21.61
2017-01-25T12:33:14.410Z,21.64
2017-01-25T12:34:23.394Z,21.63
2017-01-25T12:35:32.382Z,21.73
2017-01-25T12:36:41.370Z,21.71
2017-01-25T12:37:50.361Z,21.7
2017-01-25T12:38:59.348Z,21.7
2017-01-25T12:40:08.330Z,21.68
2017-01-25T12:41:17.502Z,21.65
2017-01-25T12:42:26.513Z,21.63
2017-01-25T12:43:35.515Z,21.64
2017-01-25T12:44:44.501Z,21.68
2017-01-25T12:45:53.486Z,21.68
2017-01-25T12:47:02.490Z,21.7
2017-01-25T12:48:11.486Z,21.65
2017-01-25T12:49:20.480Z,21.67
2017-01-25T12:50:29.458Z,21.67
2017-01-25T12:51:38.453Z,21.7
2017-01-25T12:52:47.437Z,21.73
2017-01-25T12:53:56.435Z,21.7
2017-01-25T12:55:05.433Z,21.6
2017-01-25T12:56:14.411Z,21.61
2017-01-25T12:57:23.402Z,21.61
2017-01-25T12:58:32.390Z,21.64
2017-01-25T12:59:41.381Z,21.7
2017-01-25T13:00:50.362Z,21.68
2017-01-25T13:01:59.337Z,21.64
2017-01-25T13:03:08.334Z,21.64
2017-01-25T13:04:17.318Z,21.61
2017-01-25T13:05:26.315Z,21.68
2017-01-25T13:06:35.304Z,21.67
2017-01-25T13:07:44.283Z,21.6
2017-01-25T13:08:53.267Z,21.64
2017-01-25T13:10:02.251Z,21.7
2017-01-25T13:11:11.277Z,21.63
2017-01-25T13:12:20.259Z,21.65
2017-01-25T13:13:29.239Z,21.61
2017-01-25T13:14:38.229Z,21.63
2017-01-25T13:15:47.220Z,21.61
2017-01-25T13:16:56.212Z,21.61
2017-01-25T13:18:05.224Z,21.65
2017-01-25T13:19:14.220Z,21.61
2017-01-25T13:20:23.210Z,21.61
2017-01-25T13:21:32.197Z,21.63
2017-01-25T13:22:41.182Z,21.63
2017-01-25T13:23:50.208Z,21.6
2017-01-25T13:24:59.197Z,21.61
2017-01-25T13:26:08.184Z,21.6
2017-01-25T13:27:17.177Z,21.65
2017-01-25T13:28:26.168Z,21.61
2017-01-25T13:29:35.160Z,21.64
2017-01-25T13:30:44.139Z,21.64
2017-01-25T13:31:53.136Z,21.61
2017-01-25T13:33:02.145Z,21.55
2017-01-25T13:34:11.122Z,21.61
2017-01-25T13:35:20.112Z,21.65
2017-01-25T13:36:29.097Z,21.54
2017-01-25T13:37:38.088Z,21.65
2017-01-25T13:38:47.073Z,21.64
2017-01-25T13:39:56.064Z,21.61
2017-01-25T13:41:05.051Z,21.65
2017-01-25T13:42:14.062Z,21.6
2017-01-25T13:43:23.073Z,21.6
2017-01-25T13:44:32.063Z,21.58
2017-01-25T13:45:41.061Z,21.63
2017-01-25T13:46:50.033Z,21.55
2017-01-25T13:47:59.028Z,21.58
2017-01-25T13:49:08.030Z,21.52
2017-01-25T13:50:17.031Z,21.58
2017-01-25T13:51:26.014Z,21.54
2017-01-25T13:52:35.023Z,21.52
2017-01-25T13:53:44.008Z,21.12
2017-01-25T13:54:53.021Z,20.9
2017-01-25T13:56:02.011Z,20.68
2017-01-25T13:57:11.023Z,20.66
2017-01-25T13:58:20.019Z,20.51
2017-01-25T13:59:29.067Z,20.31
2017-01-25T14:00:38.067Z,20.09
2017-01-25T14:01:47.046Z,19.94
2017-01-25T14:02:56.340Z,19.6
2017-01-25T14:04:05.328Z,19.45
2017-01-25T14:05:14.364Z,19.53
2017-01-25T14:06:23.357Z,19.33
2017-01-25T14:07:32.342Z,19.27
2017-01-25T14:08:41.512Z,19.02
2017-01-25T14:09:50.901Z,18.98
2017-01-25T14:10:59.928Z,18.71
2017-01-25T14:12:08.966Z,18.72
2017-01-25T14:13:18.366Z,18.46
2017-01-25T14:14:27.347Z,18.47
2017-01-25T14:15:36.326Z,18.42
2017-01-25T14:16:45.317Z,18.29
2017-01-25T14:17:54.357Z,18.22
2017-01-25T14:19:03.417Z,18.06
2017-01-25T14:20:12.443Z,17.94
2017-01-25T14:21:21.511Z,17.84
2017-01-25T14:22:30.934Z,17.74
2017-01-25T14:23:39.977Z,17.64
2017-01-25T14:24:49.094Z,17.48
2017-01-25T14:25:58.378Z,17.33
2017-01-25T14:27:07.374Z,17.3
2017-01-25T14:28:16.358Z,17.28
2017-01-25T14:29:25.738Z,17.14
2017-01-25T14:30:34.724Z,17.11
2017-01-25T14:31:43.701Z,17.02
2017-01-25T14:32:52.844Z,17.15
2017-01-25T14:34:01.923Z,16.98
2017-01-25T14:35:10.915Z,16.8
2017-01-25T14:36:20.288Z,16.8
2017-01-25T14:37:29.283Z,16.71
2017-01-25T14:38:38.339Z,16.69
2017-01-25T14:39:47.319Z,16.66
2017-01-25T14:40:56.313Z,16.63
2017-01-25T14:42:05.292Z,16.63
2017-01-25T14:43:14.305Z,16.58
2017-01-25T14:44:23.313Z,16.73
2017-01-25T14:45:32.304Z,16.75
2017-01-25T14:46:41.654Z,16.66
2017-01-25T14:47:50.942Z,16.73
2017-01-25T14:49:00.248Z,16.59
2017-01-25T14:50:09.435Z,16.59
2017-01-25T14:51:18.473Z,16.62
2017-01-25T14:52:27.540Z,16.75
2017-01-25T14:53:36.697Z,16.69